createdAt,value
2023-01-06T00:01:35.943Z,7.10
2023-01-06T00:06:32.106Z,7.10
2023-01-06T00:09:03.343Z,7.10
2023-01-06T00:11:31.881Z,7.10
2023-01-06T00:19:00.116Z,7.20
2023-01-06T00:21:28.934Z,7.20
2023-01-06T00:23:56.639Z,7.20
2023-01-06T00:26:24.075Z,7.20
2023-01-06T00:28:56.640Z,7.20
2023-01-06T00:33:57.422Z,7.30
2023-01-06T00:36:25.850Z,7.30
2023-01-06T00:41:39.246Z,7.30
2023-01-06T00:49:05.584Z,7.30
2023-01-06T00:51:40.144Z,7.40
2023-01-06T00:54:11.660Z,7.40
2023-01-06T00:56:42.436Z,7.50
2023-01-06T00:59:12.831Z,7.50
2023-01-06T01:01:40.907Z,7.50
2023-01-06T01:04:09.270Z,7.50
2023-01-06T01:06:37.200Z,7.50
2023-01-06T01:09:07.254Z,7.50
2023-01-06T01:11:54.128Z,7.50
2023-01-06T01:14:21.727Z,7.50
2023-01-06T01:16:48.878Z,7.60
2023-01-06T01:19:17.535Z,7.60
2023-01-06T01:21:46.742Z,7.60
2023-01-06T01:24:14.889Z,7.60
2023-01-06T01:29:18.321Z,7.60
2023-01-06T01:34:16.084Z,7.70
2023-01-06T01:36:46.400Z,7.70
2023-01-06T01:39:18.964Z,7.70
2023-01-06T01:41:47.209Z,7.80
2023-01-06T01:44:55.946Z,7.80
2023-01-06T01:47:48.913Z,7.80
2023-01-06T01:53:22.225Z,7.90
2023-01-06T01:55:53.477Z,7.90
2023-01-06T01:58:48.185Z,7.90
2023-01-06T02:01:15.302Z,7.90
2023-01-06T02:03:43.421Z,7.90
2023-01-06T02:06:19.457Z,7.90
2023-01-06T02:09:07.125Z,8.00
2023-01-06T02:11:37.961Z,8.00
2023-01-06T02:14:17.011Z,8.00
2023-01-06T02:17:29.479Z,8.00
2023-01-06T02:21:16.572Z,8.10
2023-01-06T02:24:33.114Z,8.10
2023-01-06T02:28:10.970Z,8.10
2023-01-06T02:31:49.950Z,8.10
2023-01-06T02:35:08.814Z,8.10
2023-01-06T02:38:23.993Z,8.10
2023-01-06T02:41:23.018Z,8.10
2023-01-06T02:44:28.491Z,8.10
2023-01-06T02:47:21.290Z,8.20
2023-01-06T02:50:43.750Z,8.20
2023-01-06T02:53:37.623Z,8.20
2023-01-06T02:56:05.802Z,8.20
2023-01-06T02:59:05.410Z,8.20
2023-01-06T03:01:44.767Z,8.30
2023-01-06T03:04:31.968Z,8.30
2023-01-06T03:07:04.052Z,8.30
2023-01-06T03:09:37.675Z,8.30
2023-01-06T03:12:27.359Z,8.40
2023-01-06T03:14:56.949Z,8.40
2023-01-06T03:17:25.888Z,8.40
2023-01-06T03:19:53.253Z,8.40
2023-01-06T03:22:23.287Z,8.40
2023-01-06T03:24:50.587Z,8.40
2023-01-06T03:27:25.805Z,8.50
2023-01-06T03:29:54.412Z,8.50
2023-01-06T03:33:04.162Z,8.50
2023-01-06T03:35:57.871Z,8.50
2023-01-06T03:38:55.518Z,8.60
2023-01-06T03:42:09.351Z,8.60
2023-01-06T03:45:04.220Z,8.60
2023-01-06T03:47:56.616Z,8.60
2023-01-06T03:50:37.953Z,8.60
2023-01-06T03:53:46.918Z,8.60
2023-01-06T03:56:29.610Z,8.60
2023-01-06T03:59:05.844Z,8.60
2023-01-06T04:01:34.300Z,8.60
2023-01-06T04:09:02.422Z,8.60
2023-01-06T04:11:49.965Z,8.60
2023-01-06T04:19:12.530Z,8.60
2023-01-06T04:26:37.135Z,8.60
2023-01-06T04:29:04.805Z,8.60
2023-01-06T04:36:31.915Z,8.60
2023-01-06T04:43:55.976Z,8.60
2023-01-06T04:46:24.235Z,8.60
2023-01-06T04:48:51.185Z,8.50
2023-01-06T04:51:18.169Z,8.50
2023-01-06T04:56:13.612Z,8.60
2023-01-06T05:01:12.670Z,8.50
2023-01-06T05:03:41.207Z,8.50
2023-01-06T05:06:11.992Z,8.50
2023-01-06T05:08:42.080Z,8.50
2023-01-06T05:11:16.488Z,8.50
2023-01-06T05:16:29.984Z,8.30
2023-01-06T05:18:57.765Z,8.40
2023-01-06T05:21:30.909Z,8.40
2023-01-06T05:26:28.827Z,8.40
2023-01-06T05:28:56.426Z,8.40
2023-01-06T05:31:24.176Z,8.40
2023-01-06T05:33:51.257Z,8.40
2023-01-06T05:36:19.475Z,8.40
2023-01-06T05:38:53.575Z,8.40
2023-01-06T05:41:21.212Z,8.40
2023-01-06T05:46:15.873Z,8.40
2023-01-06T05:48:42.864Z,8.40
2023-01-06T05:51:15.841Z,8.40
2023-01-06T05:53:46.683Z,8.40
2023-01-06T05:56:19.202Z,8.40
2023-01-06T05:58:50.738Z,8.30
2023-01-06T06:01:28.848Z,8.30
2023-01-06T06:06:27.187Z,8.20
2023-01-06T06:13:57.319Z,8.10
2023-01-06T06:16:28.282Z,8.10
2023-01-06T06:18:58.627Z,8.00
2023-01-06T06:21:30.393Z,7.90
2023-01-06T06:23:59.753Z,7.90
2023-01-06T06:26:27.550Z,7.70
2023-01-06T06:31:26.979Z,7.50
2023-01-06T06:33:58.019Z,7.40
2023-01-06T06:38:54.683Z,7.20
2023-01-06T06:41:23.972Z,7.10
2023-01-06T06:43:52.216Z,7.20
2023-01-06T06:46:20.506Z,7.20
2023-01-06T06:51:21.087Z,7.30
2023-01-06T06:56:19.500Z,7.30
2023-01-06T07:01:19.685Z,7.30
2023-01-06T07:03:47.663Z,7.40
2023-01-06T07:06:21.486Z,7.30
2023-01-06T07:08:49.570Z,7.40
2023-01-06T07:11:17.891Z,7.40
2023-01-06T07:18:40.573Z,7.50
2023-01-06T07:21:08.076Z,7.50
2023-01-06T07:26:03.879Z,7.60
2023-01-06T07:28:32.982Z,7.60
2023-01-06T07:31:01.711Z,7.60
2023-01-06T07:33:29.291Z,7.70
2023-01-06T07:35:57.674Z,7.70
2023-01-06T07:45:48.691Z,7.80
2023-01-06T07:48:16.792Z,7.70
2023-01-06T07:53:12.220Z,7.80
2023-01-06T07:58:09.400Z,8.00
2023-01-06T08:00:37.908Z,8.10
2023-01-06T08:03:07.967Z,8.20
2023-01-06T08:05:41.773Z,8.20
2023-01-06T08:08:11.020Z,8.30
2023-01-06T08:10:42.683Z,8.40
2023-01-06T08:13:10.660Z,8.40
2023-01-06T08:18:07.503Z,8.60
2023-01-06T08:20:35.188Z,8.60
2023-01-06T08:23:03.150Z,8.70
2023-01-06T08:27:59.954Z,8.90
2023-01-06T08:32:59.797Z,9.00
2023-01-06T08:35:27.379Z,9.00
2023-01-06T08:42:49.853Z,9.50
2023-01-06T08:50:11.695Z,9.80
2023-01-06T08:52:38.648Z,9.80
2023-01-06T08:55:05.979Z,9.90
2023-01-06T08:57:34.195Z,9.90
2023-01-06T09:03:46.063Z,9.90
2023-01-06T09:11:12.064Z,9.90
2023-01-06T09:16:10.598Z,9.90
2023-01-06T09:18:39.127Z,10.00
2023-01-06T09:21:06.413Z,10.00
2023-01-06T09:23:33.710Z,10.00
2023-01-06T09:26:00.727Z,10.00
2023-01-06T09:30:55.185Z,10.00
2023-01-06T09:35:50.115Z,10.00
2023-01-06T09:38:17.628Z,10.00
2023-01-06T09:41:32.923Z,10.10
2023-01-06T09:44:24.627Z,10.20
2023-01-06T09:50:30.039Z,10.20
2023-01-06T09:53:20.063Z,10.20
2023-01-06T09:55:53.572Z,10.40
2023-01-06T09:59:04.809Z,10.40
2023-01-06T10:01:42.318Z,10.40
2023-01-06T10:04:25.561Z,10.40
2023-01-06T10:07:41.328Z,10.30
2023-01-06T10:10:39.227Z,10.20
2023-01-06T10:13:51.621Z,10.20
2023-01-06T10:16:47.997Z,10.30
2023-01-06T10:20:17.250Z,10.40
2023-01-06T10:23:26.389Z,10.40
2023-01-06T10:26:13.034Z,10.50
2023-01-06T10:28:48.159Z,10.50
2023-01-06T10:31:23.378Z,10.70
2023-01-06T10:33:54.367Z,10.70
2023-01-06T10:36:39.766Z,10.50
2023-01-06T10:39:20.704Z,10.30
2023-01-06T10:42:40.864Z,10.10
2023-01-06T10:45:14.892Z,9.90
2023-01-06T10:47:43.974Z,8.60
2023-01-06T10:50:19.490Z,9.80
2023-01-06T10:52:48.509Z,9.80
2023-01-06T10:55:47.207Z,9.70
2023-01-06T10:58:46.545Z,9.70
2023-01-06T11:01:23.620Z,9.60
2023-01-06T11:04:13.325Z,9.70
2023-01-06T11:07:03.666Z,9.80
2023-01-06T11:09:36.490Z,10.00
2023-01-06T11:12:22.899Z,10.10
2023-01-06T11:15:22.009Z,10.10
2023-01-06T11:22:45.562Z,10.00
2023-01-06T11:25:21.857Z,9.90
2023-01-06T11:28:19.513Z,10.00
2023-01-06T11:33:29.133Z,10.40
2023-01-06T11:35:58.135Z,10.40
2023-01-06T11:38:25.701Z,10.40
2023-01-06T11:40:53.756Z,10.40
2023-01-06T11:43:31.159Z,10.30
2023-01-06T11:48:44.305Z,10.20
2023-01-06T11:53:56.338Z,10.20
2023-01-06T11:56:24.599Z,10.20
2023-01-06T11:59:14.761Z,10.20
2023-01-06T12:01:55.448Z,10.20
2023-01-06T12:04:46.726Z,10.20
2023-01-06T12:07:38.935Z,10.20
2023-01-06T12:10:24.146Z,10.20
2023-01-06T12:15:19.622Z,10.10
2023-01-06T12:18:02.671Z,10.10
2023-01-06T12:20:41.318Z,10.00
2023-01-06T12:23:20.976Z,9.90
2023-01-06T12:25:52.891Z,10.00
2023-01-06T12:28:45.137Z,9.90
2023-01-06T12:31:47.317Z,9.90
2023-01-06T12:34:42.740Z,9.80
2023-01-06T12:37:37.954Z,9.80
2023-01-06T12:40:29.832Z,9.80
2023-01-06T12:43:25.585Z,9.80
2023-01-06T12:46:11.678Z,9.90
2023-01-06T12:49:01.423Z,9.90
2023-01-06T12:54:36.136Z,9.90
2023-01-06T12:57:46.514Z,9.90
2023-01-06T13:00:43.642Z,9.80
2023-01-06T13:04:13.849Z,9.90
2023-01-06T13:07:14.571Z,9.90
2023-01-06T13:10:12.753Z,9.90
2023-01-06T13:13:36.147Z,9.90
2023-01-06T13:16:25.816Z,9.90
2023-01-06T13:19:17.319Z,9.90
2023-01-06T13:21:47.743Z,9.80
2023-01-06T13:24:56.473Z,9.80
2023-01-06T13:30:38.472Z,9.80
2023-01-06T13:33:49.756Z,9.80
2023-01-06T13:37:16.327Z,9.80
2023-01-06T13:39:55.436Z,9.80
2023-01-06T13:42:49.523Z,9.80
2023-01-06T13:45:26.803Z,9.80
2023-01-06T13:52:51.599Z,9.70
2023-01-06T13:55:35.220Z,9.70
2023-01-06T13:58:25.724Z,9.70
2023-01-06T14:01:30.214Z,9.70
2023-01-06T14:04:39.436Z,9.70
2023-01-06T14:07:06.564Z,9.70
2023-01-06T14:09:46.769Z,9.70
2023-01-06T14:12:36.385Z,9.60
2023-01-06T14:15:19.089Z,9.60
2023-01-06T14:20:36.277Z,9.60
2023-01-06T14:23:24.080Z,9.60
2023-01-06T14:25:56.369Z,9.60
2023-01-06T14:28:33.040Z,9.60
2023-01-06T14:31:31.009Z,9.50
2023-01-06T14:34:01.352Z,9.50
2023-01-06T14:36:33.261Z,9.50
2023-01-06T14:39:06.287Z,9.50
2023-01-06T14:42:03.936Z,9.40
2023-01-06T14:44:44.270Z,9.40
2023-01-06T14:47:46.002Z,9.50
2023-01-06T14:50:47.145Z,9.50
2023-01-06T14:53:34.697Z,9.40
2023-01-06T14:56:05.101Z,9.50
2023-01-06T14:58:36.931Z,9.40
2023-01-06T15:01:06.879Z,9.40
2023-01-06T15:06:16.902Z,9.30
2023-01-06T15:08:43.852Z,9.40
2023-01-06T15:11:27.997Z,9.30
2023-01-06T15:13:56.334Z,9.40
2023-01-06T15:16:41.479Z,9.40
2023-01-06T15:19:15.112Z,9.40
2023-01-06T15:21:47.950Z,9.30
2023-01-06T15:24:35.294Z,9.40
2023-01-06T15:27:12.967Z,9.40
2023-01-06T15:29:58.515Z,9.30
2023-01-06T15:32:27.312Z,9.40
2023-01-06T15:34:59.261Z,9.30
2023-01-06T15:37:34.563Z,9.30
2023-01-06T15:40:04.403Z,9.30
2023-01-06T15:42:32.909Z,9.20
2023-01-06T15:45:02.877Z,9.20
2023-01-06T15:47:35.310Z,9.20
2023-01-06T15:50:08.364Z,9.20
2023-01-06T15:52:47.381Z,9.20
2023-01-06T15:55:42.850Z,9.20
2023-01-06T15:58:26.810Z,9.20
2023-01-06T16:01:07.933Z,9.20
2023-01-06T16:03:36.127Z,9.10
2023-01-06T16:06:13.195Z,9.10
2023-01-06T16:08:42.564Z,9.00
2023-01-06T16:11:46.752Z,9.10
2023-01-06T16:14:29.111Z,9.10
2023-01-06T16:17:25.047Z,9.20
2023-01-06T16:20:00.337Z,9.20
2023-01-06T16:22:55.839Z,9.20
2023-01-06T16:25:32.185Z,9.20
2023-01-06T16:28:04.560Z,9.20
2023-01-06T16:30:36.211Z,9.20
2023-01-06T16:33:04.550Z,9.10
2023-01-06T16:35:34.734Z,9.10
2023-01-06T16:40:31.880Z,9.00
2023-01-06T16:43:02.143Z,9.10
2023-01-06T16:45:32.142Z,9.00
2023-01-06T16:50:32.906Z,9.00
2023-01-06T16:53:20.703Z,8.90
2023-01-06T16:55:55.667Z,8.90
2023-01-06T16:58:32.760Z,8.90
2023-01-06T17:01:14.855Z,8.90
2023-01-06T17:06:20.576Z,9.00
2023-01-06T17:08:49.014Z,9.00
2023-01-06T17:11:24.743Z,8.90
2023-01-06T17:14:03.368Z,8.90
2023-01-06T17:16:35.374Z,8.90
2023-01-06T17:19:16.243Z,8.90
2023-01-06T17:21:43.267Z,8.90
2023-01-06T17:24:26.295Z,8.80
2023-01-06T17:27:28.016Z,8.80
2023-01-06T17:30:01.228Z,8.80
2023-01-06T17:32:41.456Z,8.70
2023-01-06T17:35:28.513Z,8.70
2023-01-06T17:38:02.866Z,8.70
2023-01-06T17:40:38.318Z,8.60
2023-01-06T17:43:33.580Z,8.60
2023-01-06T17:50:59.367Z,8.50
2023-01-06T17:53:55.475Z,8.50
2023-01-06T17:56:23.962Z,8.40
2023-01-06T17:58:50.987Z,8.40
2023-01-06T18:01:28.805Z,8.50
2023-01-06T18:03:59.808Z,8.40
2023-01-06T18:06:37.769Z,8.40
2023-01-06T18:09:18.701Z,8.30
2023-01-06T18:11:52.183Z,8.30
2023-01-06T18:14:28.998Z,8.30
2023-01-06T18:16:59.917Z,8.30
2023-01-06T18:19:33.781Z,8.30
2023-01-06T18:22:11.998Z,8.30
2023-01-06T18:24:41.630Z,8.20
2023-01-06T18:27:29.986Z,8.30
2023-01-06T18:30:21.455Z,8.30
2023-01-06T18:32:50.711Z,8.20
2023-01-06T18:35:27.622Z,8.20
2023-01-06T18:38:00.272Z,8.20
2023-01-06T18:40:27.842Z,8.20
2023-01-06T18:42:56.168Z,8.10
2023-01-06T18:45:36.577Z,8.10
2023-01-06T18:48:32.312Z,8.10
2023-01-06T18:51:02.848Z,8.10
2023-01-06T18:53:43.414Z,8.00
2023-01-06T18:56:24.387Z,8.00
2023-01-06T18:58:57.266Z,8.00
2023-01-06T19:01:44.694Z,8.00
2023-01-06T19:04:30.009Z,8.00
2023-01-06T19:07:11.887Z,7.90
2023-01-06T19:12:39.074Z,7.90
2023-01-06T19:15:23.858Z,8.00
2023-01-06T19:17:51.821Z,7.90
2023-01-06T19:23:23.784Z,7.90
2023-01-06T19:26:05.949Z,7.90
2023-01-06T19:28:35.660Z,7.80
2023-01-06T19:31:05.687Z,7.80
2023-01-06T19:33:40.232Z,7.80
2023-01-06T19:36:43.528Z,7.90
2023-01-06T19:39:50.754Z,7.80
2023-01-06T19:42:36.335Z,7.80
2023-01-06T19:45:28.179Z,7.80
2023-01-06T19:52:59.297Z,7.70
2023-01-06T19:55:30.872Z,7.70
2023-01-06T19:58:05.256Z,7.70
2023-01-06T20:00:50.408Z,7.70
2023-01-06T20:03:34.007Z,7.70
2023-01-06T20:06:02.110Z,7.70
2023-01-06T20:15:51.576Z,7.80
2023-01-06T20:23:14.175Z,7.70
2023-01-06T20:28:08.761Z,7.70
2023-01-06T20:33:03.706Z,7.60
2023-01-06T20:40:25.990Z,7.60
2023-01-06T20:45:20.663Z,7.60
2023-01-06T20:47:48.211Z,7.60
2023-01-06T20:50:15.339Z,7.60
2023-01-06T20:52:45.435Z,7.60
2023-01-06T21:00:10.852Z,7.60
2023-01-06T21:02:38.817Z,7.70
2023-01-06T21:05:08.125Z,7.70
2023-01-06T21:07:35.455Z,7.60
2023-01-06T21:10:04.071Z,7.70
2023-01-06T21:12:31.507Z,7.70
2023-01-06T21:17:26.319Z,7.70
2023-01-06T21:19:55.110Z,7.70
2023-01-06T21:22:22.314Z,7.70
2023-01-06T21:24:49.584Z,7.70
2023-01-06T21:27:16.743Z,7.80
2023-01-06T21:32:14.145Z,7.80
2023-01-06T21:42:22.485Z,7.80
2023-01-06T21:44:50.009Z,7.80
2023-01-06T21:52:15.510Z,7.90
2023-01-06T21:54:45.910Z,7.80
2023-01-06T21:57:13.573Z,7.80
2023-01-06T22:02:09.370Z,7.80
2023-01-06T22:04:36.623Z,7.80
2023-01-06T22:07:09.027Z,7.80
2023-01-06T22:09:39.401Z,7.70
2023-01-06T22:12:09.446Z,7.70
2023-01-06T22:19:32.378Z,7.70
2023-01-06T22:22:01.429Z,7.70
2023-01-06T22:24:31.950Z,7.70
2023-01-06T22:26:59.373Z,7.60
2023-01-06T22:31:54.059Z,7.60
2023-01-06T22:39:17.009Z,7.50
2023-01-06T22:44:11.459Z,7.40
2023-01-06T22:49:06.427Z,7.30
2023-01-06T22:54:00.950Z,7.30
2023-01-06T23:01:22.901Z,7.20
2023-01-06T23:03:49.932Z,7.20
2023-01-06T23:08:59.102Z,7.20
2023-01-06T23:13:57.726Z,7.20
2023-01-06T23:21:27.244Z,7.20
2023-01-06T23:23:54.626Z,7.20
2023-01-06T23:26:31.062Z,7.20
2023-01-06T23:31:31.048Z,7.20
2023-01-06T23:34:08.136Z,7.20
2023-01-06T23:36:36.907Z,7.30
2023-01-06T23:39:07.929Z,7.30
2023-01-06T23:41:37.317Z,7.30
2023-01-06T23:44:05.759Z,7.30
2023-01-06T23:46:39.422Z,7.30
2023-01-06T23:51:35.472Z,7.30
2023-01-06T23:54:04.559Z,7.30
2023-01-06T23:56:34.780Z,7.30
2023-01-06T23:59:06.462Z,7.30
